Time;durP1;ratioP1;P1;durP2;ratioP2;P2;SDS_P1;SDS_P2;PMS_P1;PMS_P2;Temp;Humidity;BMP_temperature;BMP_pressure;BME280_temperature;BME280_humidity;BME280_pressure;Samples;Min_cycle;Max_cycle;Signal;HPM_P1;HPM_P2
2023/08/23 00:21:07;;;;;;;16.25;11.93;;;;;;;;;;5993020;23;20026;-91
2023/08/23 00:23:33;;;;;;;;;;;;;;;;;;5991314;23;20135;-91
2023/08/23 00:25:59;;;;;;;16.20;11.85;;;;;;;;;;6014449;23;19922;-91
2023/08/23 00:28:25;;;;;;;19.88;12.35;;;;;;;;;;6014243;23;20050;-92
2023/08/23 00:30:52;;;;;;;16.63;11.95;;;;;;;;;;5991745;23;20055;-91
2023/08/23 00:33:21;;;;;;;17.52;12.38;;;;;;;;;;5991516;23;20030;-91
2023/08/23 00:36:06;;;;;;;18.40;12.15;;;;;;;;;;6015478;23;20038;-92
2023/08/23 00:38:32;;;;;;;16.02;12.15;;;;;;;;;;5990704;23;20015;-92
2023/08/23 00:41:16;;;;;;;;;;;;;;;;;;;;;
2023/08/23 00:43:45;;;;;;;16.70;12.18;;;;;;;;;;6037859;23;20079;-91
2023/08/23 00:46:11;;;;;;;18.30;12.52;;;;;;;;;;5990407;23;20483;-92
2023/08/23 00:48:44;;;;;;;17.25;12.80;;;;;;;;;;6035182;23;20022;-92
2023/08/23 00:51:35;;;;;;;20.45;12.45;;;;;;;;;;6046898;23;20022;-92
2023/08/23 00:54:05;;;;;;;19.35;12.93;;;;;;;;;;6047515;23;20549;-92
2023/08/23 01:03:02;;;;;;;20.58;13.25;;;;;;;;;;6155343;23;20032;-92
2023/08/23 01:05:52;;;;;;;19.20;13.02;;;;;;;;;;6130064;23;20018;-92
2023/08/23 01:09:05;;;;;;;19.15;12.40;;;;;;;;;;6132390;23;20465;-92
2023/08/23 01:11:50;;;;;;;18.27;12.57;;;;;;;;;;6130134;23;20013;-92
2023/08/23 01:14:28;;;;;;;16.45;11.60;;;;;;;;;;6150779;23;20052;-91
2023/08/23 01:17:04;;;;;;;15.40;12.20;;;;;;;;;;6164805;23;20017;-91
2023/08/23 01:23:31;;;;;;;;;;;;;;;;;;;;;
2023/08/23 01:26:12;;;;;;;17.55;12.00;;;;;;;;;;6155174;23;20481;-91
2023/08/23 01:28:41;;;;;;;20.52;13.27;;;;;;;;;;6130129;23;20021;-91
2023/08/23 01:31:22;;;;;;;;;;;;;;;;;;;;;
2023/08/23 01:34:12;;;;;;;17.38;12.20;;;;;;;;;;6153746;23;20076;-92
2023/08/23 01:36:47;;;;;;;17.65;12.55;;;;;;;;;;6153655;23;20017;-92
2023/08/23 01:39:16;;;;;;;16.47;12.03;;;;;;;;;;6130329;23;20017;-92
2023/08/23 01:42:03;;;;;;;;;;;;;;;;;;;;;
2023/08/23 01:48:37;;;;;;;;;;;;;;;;;;;;;
2023/08/23 01:51:36;;;;;;;18.58;13.40;;;;;;;;;;6185721;23;20032;-93
2023/08/23 01:54:34;;;;;;;19.48;12.63;;;;;;;;;;6134181;23;20028;-92
2023/08/23 01:57:06;;;;;;;18.50;13.27;;;;;;;;;;6103773;23;20092;-93
2023/08/23 01:59:36;;;;;;;18.08;12.93;;;;;;;;;;6160363;23;20021;-92
2023/08/23 02:02:03;;;;;;;20.73;13.23;;;;;;;;;;6135059;23;20069;-92
2023/08/23 02:04:31;;;;;;;19.50;13.80;;;;;;;;;;6135206;23;20096;-92
2023/08/23 02:07:00;;;;;;;20.27;12.60;;;;;;;;;;6160276;23;20078;-91
2023/08/23 02:09:31;;;;;;;19.17;13.02;;;;;;;;;;6135168;23;20047;-91
2023/08/23 02:12:02;;;;;;;19.17;13.73;;;;;;;;;;6160066;23;20021;-92
2023/08/23 02:14:34;;;;;;;21.15;14.00;;;;;;;;;;6135617;23;20071;-92
2023/08/23 02:17:12;;;;;;;19.73;13.40;;;;;;;;;;6134920;23;20013;-92
2023/08/23 02:19:54;;;;;;;19.73;12.95;;;;;;;;;;6150196;23;20028;-92
2023/08/23 02:22:23;;;;;;;20.45;13.60;;;;;;;;;;6158765;23;20056;-92
2023/08/23 02:25:31;;;;;;;21.77;13.20;;;;;;;;;;6137057;23;20096;-93
2023/08/23 02:28:40;;;;;;;21.95;14.15;;;;;;;;;;6148778;23;20017;-93
2023/08/23 02:34:46;;;;;;;18.15;12.63;;;;;;;;;;6187507;23;20017;-93
2023/08/23 02:38:12;;;;;;;19.27;12.52;;;;;;;;;;6046249;23;20026;-92
2023/08/23 02:41:24;;;;;;;21.75;13.30;;;;;;;;;;5952992;24;20027;-92
2023/08/23 02:47:53;;;;;;;;;;;;;;;;;;;;;
2023/08/23 02:50:38;;;;;;;19.08;12.60;;;;;;;;;;5817375;24;20019;-92
2023/08/23 02:53:09;;;;;;;20.02;12.48;;;;;;;;;;5798368;24;20022;-92
2023/08/23 02:55:59;;;;;;;20.75;12.55;;;;;;;;;;5818900;24;20058;-92
2023/08/23 02:58:25;;;;;;;16.92;12.48;;;;;;;;;;5819172;24;20084;-91
2023/08/23 03:00:52;;;;;;;22.35;14.23;;;;;;;;;;5796867;24;20102;-92
2023/08/23 03:03:20;;;;;;;19.02;13.48;;;;;;;;;;5797582;24;20025;-92
2023/08/23 03:05:51;;;;;;;17.80;12.18;;;;;;;;;;5818874;24;20373;-92
2023/08/23 03:11:32;;;;;;;17.88;12.15;;;;;;;;;;5788956;24;20063;-92
2023/08/23 03:14:07;;;;;;;19.40;12.68;;;;;;;;;;5901769;23;20023;-92
2023/08/23 03:16:44;;;;;;;22.48;14.05;;;;;;;;;;6019233;23;20022;-92
2023/08/23 03:19:35;;;;;;;;;;;;;;;;;;;;;
2023/08/23 03:29:09;;;;;;;;;;;;;;;;;;;;;
2023/08/23 03:35:46;;;;;;;18.63;13.43;;;;;;;;;;5948935;24;20024;-92
2023/08/23 03:38:29;;;;;;;20.10;13.45;;;;;;;;;;5876274;24;20451;-92
2023/08/23 03:44:07;;;;;;;18.52;13.38;;;;;;;;;;5899098;24;20109;-92
2023/08/23 03:46:51;;;;;;;19.27;13.52;;;;;;;;;;5812995;24;20096;-92
2023/08/23 03:49:23;;;;;;;21.80;13.45;;;;;;;;;;5849521;24;20024;-92
2023/08/23 03:51:58;;;;;;;20.45;13.95;;;;;;;;;;5875968;24;20387;-92
2023/08/23 03:54:39;;;;;;;18.80;13.63;;;;;;;;;;5875001;24;20018;-92
2023/08/23 03:57:18;;;;;;;;;;;;;;;;;;;;;
2023/08/23 03:59:58;;;;;;;24.60;14.35;;;;;;;;;;5898464;24;20030;-92
2023/08/23 04:02:48;;;;;;;19.90;13.73;;;;;;;;;;5931610;24;20021;-92
2023/08/23 04:05:26;;;;;;;23.60;15.70;;;;;;;;;;5949507;23;20020;-92
2023/08/23 04:08:00;;;;;;;20.65;14.73;;;;;;;;;;5995875;23;20015;-92
2023/08/23 04:10:26;;;;;;;21.85;14.10;;;;;;;;;;6020064;23;20070;-92
2023/08/23 04:12:58;;;;;;;24.67;15.13;;;;;;;;;;6147072;23;20374;-92
2023/08/23 04:15:48;;;;;;;22.20;15.27;;;;;;;;;;6136602;23;20067;-92
2023/08/23 04:18:24;;;;;;;21.02;14.60;;;;;;;;;;6135882;23;20056;-92
2023/08/23 04:21:19;;;;;;;20.08;14.70;;;;;;;;;;6135727;23;20013;-92
2023/08/23 04:23:48;;;;;;;21.05;14.18;;;;;;;;;;6137035;23;20028;-92
2023/08/23 04:26:20;;;;;;;19.13;14.52;;;;;;;;;;6160782;23;20319;-92
2023/08/23 04:29:19;;;;;;;22.90;14.73;;;;;;;;;;6161211;23;20025;-92
2023/08/23 04:31:54;;;;;;;20.63;14.52;;;;;;;;;;6132350;23;20028;-92
2023/08/23 04:34:45;;;;;;;21.63;15.05;;;;;;;;;;6135636;23;20032;-92
2023/08/23 04:37:14;;;;;;;25.98;15.93;;;;;;;;;;6135223;23;20024;-92
2023/08/23 04:39:54;;;;;;;22.23;14.48;;;;;;;;;;6135168;23;20020;-92
2023/08/23 04:42:34;;;;;;;22.73;14.77;;;;;;;;;;6157724;23;20020;-92
2023/08/23 04:45:03;;;;;;;22.38;14.90;;;;;;;;;;6135177;23;20017;-92
2023/08/23 04:47:32;;;;;;;22.13;15.50;;;;;;;;;;6136677;23;20017;-92
2023/08/23 04:50:16;;;;;;;21.35;15.48;;;;;;;;;;6159683;23;20064;-92
2023/08/23 04:52:45;;;;;;;23.65;14.38;;;;;;;;;;6135674;23;20393;-92
2023/08/23 04:55:23;;;;;;;20.40;13.82;;;;;;;;;;6159922;23;20071;-92
2023/08/23 04:58:18;;;;;;;19.38;14.15;;;;;;;;;;6137630;23;20053;-92
2023/08/23 05:01:05;;;;;;;22.20;15.57;;;;;;;;;;6133618;23;20019;-92
2023/08/23 05:38:19;;;;;;;21.27;14.82;;;;;;;;;;5910828;24;20028;-92
2023/08/23 05:41:04;;;;;;;21.17;15.43;;;;;;;;;;5885733;24;20033;-92
2023/08/23 05:50:24;;;;;;;20.98;15.38;;;;;;;;;;5789083;24;20023;-91
2023/08/23 05:52:56;;;;;;;23.10;16.38;;;;;;;;;;5774606;24;20084;-91
2023/08/23 05:55:23;;;;;;;23.55;16.52;;;;;;;;;;5845146;24;20097;-92
2023/08/23 05:57:54;;;;;;;21.58;16.02;;;;;;;;;;5848469;24;20096;-92
2023/08/23 06:00:41;;;;;;;23.38;16.20;;;;;;;;;;5845659;24;20026;-92
2023/08/23 06:06:41;;;;;;;22.00;16.50;;;;;;;;;;5834046;24;20427;-91
2023/08/23 06:09:16;;;;;;;24.25;16.95;;;;;;;;;;5925600;24;20032;-92
2023/08/23 06:12:12;;;;;;;24.60;16.70;;;;;;;;;;5902518;24;20099;-92
2023/08/23 06:18:08;;;;;;;23.55;17.00;;;;;;;;;;5843926;24;20072;-91
2023/08/23 06:21:30;;;;;;;25.13;17.20;;;;;;;;;;5822912;24;20034;-92
2023/08/23 06:24:00;;;;;;;27.83;16.88;;;;;;;;;;5807481;24;20497;-91
2023/08/23 06:40:33;;;;;;;;;;;;;;;;;;;;;
2023/08/23 06:43:26;;;;;;;26.55;17.17;;;;;;;;;;5845492;24;20080;-92
2023/08/23 06:46:25;;;;;;;22.15;16.77;;;;;;;;;;5825678;24;20025;-92
2023/08/23 06:49:05;;;;;;;24.38;16.48;;;;;;;;;;5845306;24;20107;-90
2023/08/23 06:51:41;;;;;;;24.40;17.58;;;;;;;;;;5825033;24;20109;-89
2023/08/23 06:54:17;;;;;;;23.73;17.08;;;;;;;;;;5846864;24;20073;-91
2023/08/23 06:56:43;;;;;;;24.08;16.77;;;;;;;;;;5884231;24;20028;-91
2023/08/23 06:59:10;;;;;;;23.45;15.82;;;;;;;;;;5908042;24;20492;-91
2023/08/23 07:01:36;;;;;;;22.92;16.02;;;;;;;;;;5949179;23;20231;-91
2023/08/23 07:04:02;;;;;;;25.27;17.08;;;;;;;;;;5986916;23;20355;-89
2023/08/23 07:06:30;;;;;;;26.50;16.88;;;;;;;;;;6097941;23;20097;-89
2023/08/23 07:08:56;;;;;;;21.45;15.52;;;;;;;;;;6131389;23;20018;-90
2023/08/23 07:11:34;;;;;;;24.20;16.70;;;;;;;;;;6106678;23;20123;-90
2023/08/23 07:14:00;;;;;;;24.63;17.38;;;;;;;;;;6131425;23;20064;-90
2023/08/23 07:16:26;;;;;;;23.42;16.67;;;;;;;;;;6156865;23;20044;-89
2023/08/23 07:18:53;;;;;;;23.20;16.13;;;;;;;;;;6106584;23;20128;-88
2023/08/23 07:21:19;;;;;;;21.00;14.88;;;;;;;;;;6130783;23;20021;-88
2023/08/23 07:23:45;;;;;;;21.88;15.82;;;;;;;;;;6156674;23;20023;-88
2023/08/23 07:26:11;;;;;;;22.10;15.30;;;;;;;;;;6156440;23;20041;-88
2023/08/23 07:28:37;;;;;;;20.08;15.10;;;;;;;;;;6157027;23;20021;-88
2023/08/23 07:31:03;;;;;;;22.30;15.10;;;;;;;;;;6156610;23;20018;-87
2023/08/23 07:33:29;;;;;;;20.33;14.65;;;;;;;;;;6109430;23;20025;-90
2023/08/23 07:36:00;;;;;;;18.65;14.80;;;;;;;;;;6164671;23;20021;-90
2023/08/23 07:38:26;;;;;;;17.75;14.25;;;;;;;;;;6120696;23;20121;-89
2023/08/23 07:40:59;;;;;;;18.67;14.88;;;;;;;;;;6164291;23;20024;-88
2023/08/23 07:43:26;;;;;;;21.05;15.02;;;;;;;;;;6105817;23;20021;-89
2023/08/23 07:45:53;;;;;;;22.30;14.95;;;;;;;;;;6106354;23;20090;-88
2023/08/23 07:48:22;;;;;;;21.38;15.50;;;;;;;;;;6105514;23;20474;-89
2023/08/23 07:50:49;;;;;;;19.88;14.73;;;;;;;;;;6159297;23;20414;-88
2023/08/23 07:53:16;;;;;;;20.70;14.48;;;;;;;;;;6134860;23;20017;-89
2023/08/23 07:55:42;;;;;;;19.02;13.70;;;;;;;;;;6160023;23;20020;-89
2023/08/23 07:58:08;;;;;;;18.10;13.95;;;;;;;;;;6186345;23;20017;-89
2023/08/23 08:00:35;;;;;;;18.15;14.50;;;;;;;;;;6159768;23;20092;-89
2023/08/23 08:03:03;;;;;;;20.08;14.10;;;;;;;;;;6160371;23;20013;-87
2023/08/23 08:05:29;;;;;;;20.58;13.32;;;;;;;;;;6185992;23;20043;-89
2023/08/23 08:07:56;;;;;;;16.10;12.25;;;;;;;;;;6185511;23;20446;-89
2023/08/23 08:10:22;;;;;;;17.15;12.23;;;;;;;;;;6159431;23;20455;-89
2023/08/23 08:12:48;;;;;;;22.52;13.32;;;;;;;;;;6159659;23;20013;-89
2023/08/23 08:15:14;;;;;;;17.35;13.25;;;;;;;;;;6185821;23;20335;-88
2023/08/23 08:17:40;;;;;;;19.05;12.82;;;;;;;;;;6132606;23;20024;-89
2023/08/23 08:20:08;;;;;;;18.50;12.45;;;;;;;;;;6159782;23;20088;-89
2023/08/23 08:22:34;;;;;;;18.38;12.63;;;;;;;;;;6185891;23;20397;-89
2023/08/23 08:25:01;;;;;;;18.42;13.23;;;;;;;;;;6134474;23;20442;-89
2023/08/23 08:27:27;;;;;;;17.67;12.27;;;;;;;;;;6186247;23;20108;-89
2023/08/23 08:29:53;;;;;;;15.40;11.90;;;;;;;;;;6159405;23;20021;-89
2023/08/23 08:32:19;;;;;;;16.10;12.38;;;;;;;;;;6159644;23;20013;-89
2023/08/23 08:34:46;;;;;;;16.17;11.85;;;;;;;;;;6159567;23;20036;-89
2023/08/23 08:37:13;;;;;;;16.92;12.30;;;;;;;;;;6135711;23;20052;-89
2023/08/23 08:39:39;;;;;;;15.77;11.73;;;;;;;;;;6185601;23;20461;-89
2023/08/23 08:42:05;;;;;;;18.70;10.75;;;;;;;;;;6159092;23;20013;-90
2023/08/23 08:44:31;;;;;;;15.57;10.43;;;;;;;;;;6159708;23;20099;-90
2023/08/23 08:46:57;;;;;;;16.33;10.05;;;;;;;;;;6134780;23;20089;-90
2023/08/23 08:49:23;;;;;;;14.63;9.05;;;;;;;;;;6154474;23;20470;-90
2023/08/23 08:51:49;;;;;;;13.15;8.95;;;;;;;;;;6154939;23;20087;-90
2023/08/23 08:54:17;;;;;;;12.95;8.68;;;;;;;;;;6154774;23;20025;-90
2023/08/23 08:56:47;;;;;;;11.90;7.18;;;;;;;;;;6156434;23;20018;-90
2023/08/23 08:59:15;;;;;;;11.02;6.25;;;;;;;;;;6154930;23;20017;-90
2023/08/23 09:01:42;;;;;;;13.15;6.13;;;;;;;;;;6130410;23;20018;-90
2023/08/23 09:04:08;;;;;;;10.82;5.82;;;;;;;;;;6130337;23;20536;-90
2023/08/23 09:06:40;;;;;;;10.13;6.30;;;;;;;;;;6130156;23;20477;-88
2023/08/23 09:09:07;;;;;;;10.30;6.50;;;;;;;;;;6131521;23;20030;-88
2023/08/23 09:11:33;;;;;;;9.35;6.95;;;;;;;;;;6156326;23;20020;-88
2023/08/23 09:13:59;;;;;;;8.80;5.55;;;;;;;;;;6154587;23;20074;-88
2023/08/23 09:16:26;;;;;;;12.15;6.50;;;;;;;;;;6130237;23;20067;-88
2023/08/23 09:18:52;;;;;;;9.63;5.78;;;;;;;;;;6155091;23;20447;-88
2023/08/23 09:21:20;;;;;;;11.55;5.65;;;;;;;;;;6129946;23;20057;-88
2023/08/23 09:23:49;;;;;;;8.57;5.68;;;;;;;;;;6131235;23;20056;-88
2023/08/23 09:26:15;;;;;;;8.05;5.00;;;;;;;;;;6154785;23;20446;-87
2023/08/23 09:28:41;;;;;;;7.32;5.03;;;;;;;;;;6156398;23;20454;-91
2023/08/23 09:31:11;;;;;;;10.38;5.38;;;;;;;;;;6154941;23;20053;-90
2023/08/23 09:33:40;;;;;;;9.73;5.13;;;;;;;;;;6131204;23;20025;-91
2023/08/23 09:36:06;;;;;;;8.85;4.60;;;;;;;;;;6130238;23;20025;-91
2023/08/23 09:38:33;;;;;;;6.40;4.22;;;;;;;;;;6155559;23;20040;-91
2023/08/23 09:41:00;;;;;;;5.78;3.75;;;;;;;;;;6136495;23;20017;-90
2023/08/23 09:43:34;;;;;;;6.80;4.50;;;;;;;;;;6137144;23;20069;-90
2023/08/23 09:46:03;;;;;;;10.00;5.10;;;;;;;;;;6132051;23;20024;-91
2023/08/23 09:48:31;;;;;;;7.25;5.10;;;;;;;;;;6131229;23;20096;-90
2023/08/23 09:50:58;;;;;;;11.05;5.35;;;;;;;;;;6134831;23;20453;-90
2023/08/23 09:53:28;;;;;;;8.25;4.57;;;;;;;;;;6159191;23;20517;-90
2023/08/23 09:55:54;;;;;;;7.63;4.57;;;;;;;;;;6161234;23;20088;-90
2023/08/23 09:58:21;;;;;;;7.97;5.63;;;;;;;;;;6136676;23;20013;-90
2023/08/23 10:00:53;;;;;;;7.55;5.00;;;;;;;;;;6136797;23;20021;-90
2023/08/23 10:03:21;;;;;;;7.97;5.05;;;;;;;;;;6161469;23;20028;-90
2023/08/23 10:05:48;;;;;;;8.73;4.85;;;;;;;;;;6136688;23;20108;-90
2023/08/23 10:08:18;;;;;;;7.57;4.60;;;;;;;;;;6136623;23;20021;-90
2023/08/23 10:10:52;;;;;;;9.43;4.72;;;;;;;;;;6137180;23;20020;-89
2023/08/23 10:13:21;;;;;;;9.52;5.47;;;;;;;;;;6137421;23;20017;-88
2023/08/23 10:15:51;;;;;;;11.55;4.85;;;;;;;;;;6136275;23;20021;-88
2023/08/23 10:18:17;;;;;;;9.48;5.53;;;;;;;;;;6161427;23;20043;-88
2023/08/23 10:20:46;;;;;;;8.70;5.07;;;;;;;;;;6136719;23;20013;-88
2023/08/23 10:23:16;;;;;;;9.00;5.40;;;;;;;;;;6161575;23;20088;-87
2023/08/23 10:25:43;;;;;;;10.88;6.28;;;;;;;;;;6161105;23;20024;-87
2023/08/23 10:28:09;;;;;;;8.70;4.70;;;;;;;;;;6137067;23;20013;-88
2023/08/23 10:30:55;;;;;;;6.90;4.38;;;;;;;;;;6136952;23;20155;-88
2023/08/23 10:33:21;;;;;;;6.53;3.70;;;;;;;;;;6160857;23;20451;-88
2023/08/23 10:35:50;;;;;;;7.05;3.53;;;;;;;;;;6136277;23;20326;-88
2023/08/23 10:38:16;;;;;;;4.80;3.05;;;;;;;;;;6136357;23;20310;-88
2023/08/23 10:41:09;;;;;;;;;;;;;;;;;;;;;
2023/08/23 10:43:52;;;;;;;7.88;4.20;;;;;;;;;;6187202;23;20019;-87
2023/08/23 10:46:19;;;;;;;7.20;4.22;;;;;;;;;;6186862;23;20067;-86
2023/08/23 10:48:48;;;;;;;7.50;4.20;;;;;;;;;;6135984;23;20025;-87
2023/08/23 10:51:15;;;;;;;6.60;4.80;;;;;;;;;;6135940;23;20017;-88
2023/08/23 10:53:43;;;;;;;5.65;3.58;;;;;;;;;;6136277;23;20017;-88
2023/08/23 10:56:12;;;;;;;7.53;4.10;;;;;;;;;;6160910;23;20422;-87
2023/08/23 10:58:38;;;;;;;5.40;3.50;;;;;;;;;;6135628;23;20461;-88
2023/08/23 11:01:08;;;;;;;4.60;3.20;;;;;;;;;;6160469;23;20508;-88
2023/08/23 11:03:34;;;;;;;6.03;3.15;;;;;;;;;;6136130;23;20087;-88
2023/08/23 11:06:01;;;;;;;5.82;3.25;;;;;;;;;;6135273;23;20350;-87
2023/08/23 11:08:27;;;;;;;7.25;3.03;;;;;;;;;;6135969;23;20025;-88
2023/08/23 11:10:53;;;;;;;3.78;2.80;;;;;;;;;;6159969;23;20320;-88
2023/08/23 11:13:19;;;;;;;4.45;2.35;;;;;;;;;;6136947;23;20048;-88
2023/08/23 11:15:48;;;;;;;4.35;2.40;;;;;;;;;;6136150;23;20360;-88
2023/08/23 11:18:18;;;;;;;4.97;2.70;;;;;;;;;;6136056;23;20079;-87
2023/08/23 11:20:45;;;;;;;4.70;2.60;;;;;;;;;;6137805;23;20068;-88
2023/08/23 11:23:11;;;;;;;5.35;2.42;;;;;;;;;;6138516;23;20017;-88
2023/08/23 11:25:37;;;;;;;6.68;2.88;;;;;;;;;;6138828;23;20397;-88
2023/08/23 11:28:05;;;;;;;6.50;4.05;;;;;;;;;;6139158;23;20017;-88
2023/08/23 11:30:31;;;;;;;7.90;4.57;;;;;;;;;;6136260;23;20013;-88
2023/08/23 11:32:57;;;;;;;7.90;4.75;;;;;;;;;;6136281;23;20457;-88
2023/08/23 11:35:24;;;;;;;11.75;5.45;;;;;;;;;;6187586;23;20041;-87
2023/08/23 11:37:50;;;;;;;8.60;4.82;;;;;;;;;;6137153;23;20044;-88
2023/08/23 11:40:16;;;;;;;6.47;4.60;;;;;;;;;;6137868;23;20020;-88
2023/08/23 11:42:42;;;;;;;8.20;4.28;;;;;;;;;;6162843;23;20096;-88
2023/08/23 11:45:09;;;;;;;7.40;4.40;;;;;;;;;;6136539;23;20063;-88
2023/08/23 11:47:36;;;;;;;7.95;4.07;;;;;;;;;;6139324;23;20028;-88
2023/08/23 11:50:07;;;;;;;5.85;4.32;;;;;;;;;;6160279;23;20052;-88
2023/08/23 11:52:33;;;;;;;7.95;4.30;;;;;;;;;;6140688;23;20021;-88
2023/08/23 11:55:01;;;;;;;5.25;3.92;;;;;;;;;;6132829;23;20049;-87
2023/08/23 11:57:27;;;;;;;8.50;3.95;;;;;;;;;;6157082;23;20060;-88
2023/08/23 11:59:54;;;;;;;7.68;3.80;;;;;;;;;;6155979;23;20131;-88
2023/08/23 12:02:20;;;;;;;6.00;2.90;;;;;;;;;;6132110;23;20026;-88
2023/08/23 12:04:46;;;;;;;5.43;3.42;;;;;;;;;;6157210;23;20053;-88
2023/08/23 12:07:13;;;;;;;6.97;3.58;;;;;;;;;;6130432;23;20017;-88
2023/08/23 12:09:42;;;;;;;5.68;3.38;;;;;;;;;;6131418;23;20049;-89
2023/08/23 12:12:14;;;;;;;10.45;4.20;;;;;;;;;;6130417;23;20026;-89
2023/08/23 12:14:45;;;;;;;7.03;3.10;;;;;;;;;;6130516;23;20021;-89
2023/08/23 12:17:12;;;;;;;6.45;3.88;;;;;;;;;;6156503;23;20060;-88
2023/08/23 12:19:38;;;;;;;8.32;4.85;;;;;;;;;;6155490;23;20033;-88
2023/08/23 12:22:07;;;;;;;17.95;4.72;;;;;;;;;;6155788;23;20101;-89
2023/08/23 12:24:36;;;;;;;9.27;5.05;;;;;;;;;;6130859;23;20018;-89
2023/08/23 12:27:02;;;;;;;7.35;5.63;;;;;;;;;;6159332;23;20093;-89
2023/08/23 12:29:28;;;;;;;12.15;5.43;;;;;;;;;;6156052;23;20512;-88
2023/08/23 12:31:55;;;;;;;9.15;5.32;;;;;;;;;;6156656;23;20037;-89
2023/08/23 12:34:21;;;;;;;8.93;5.68;;;;;;;;;;6156633;23;20450;-89
2023/08/23 12:36:47;;;;;;;7.25;5.70;;;;;;;;;;6154909;23;20029;-88
2023/08/23 12:39:16;;;;;;;8.40;4.75;;;;;;;;;;6131317;23;20051;-89
2023/08/23 12:41:42;;;;;;;10.15;6.18;;;;;;;;;;6155616;23;20021;-88
2023/08/23 12:44:08;;;;;;;11.15;6.05;;;;;;;;;;6130632;23;20080;-88
2023/08/23 12:46:34;;;;;;;10.48;6.05;;;;;;;;;;6131162;23;20093;-88
2023/08/23 12:49:01;;;;;;;8.93;5.32;;;;;;;;;;6160171;23;20017;-88
2023/08/23 12:51:27;;;;;;;8.00;5.53;;;;;;;;;;6137801;23;20035;-88
2023/08/23 12:53:53;;;;;;;6.60;5.80;;;;;;;;;;6161468;23;20469;-89
2023/08/23 12:56:20;;;;;;;9.10;6.38;;;;;;;;;;6162937;23;20017;-86
2023/08/23 12:58:46;;;;;;;11.43;6.20;;;;;;;;;;6187499;23;20017;-88
2023/08/23 13:01:12;;;;;;;8.93;6.18;;;;;;;;;;6187461;23;20059;-89
2023/08/23 13:03:38;;;;;;;8.75;7.28;;;;;;;;;;6135746;23;20053;-89
2023/08/23 13:06:04;;;;;;;8.65;6.75;;;;;;;;;;6160137;23;20017;-89
2023/08/23 13:08:30;;;;;;;7.78;6.13;;;;;;;;;;6136307;23;20017;-89
2023/08/23 13:10:56;;;;;;;10.13;6.18;;;;;;;;;;6159866;23;20024;-88
2023/08/23 13:13:22;;;;;;;7.80;5.75;;;;;;;;;;6186475;23;20354;-88
2023/08/23 13:15:49;;;;;;;9.60;6.05;;;;;;;;;;6135906;23;20024;-88
2023/08/23 13:18:15;;;;;;;10.90;6.05;;;;;;;;;;6159878;23;20017;-88
2023/08/23 13:20:41;;;;;;;8.55;5.40;;;;;;;;;;6160105;23;20449;-89
2023/08/23 13:23:07;;;;;;;10.88;4.80;;;;;;;;;;6187242;23;20067;-88
2023/08/23 13:25:33;;;;;;;6.32;4.80;;;;;;;;;;6136520;23;20021;-88
2023/08/23 13:27:59;;;;;;;5.70;4.13;;;;;;;;;;6160046;23;20024;-89
2023/08/23 13:30:27;;;;;;;12.45;4.20;;;;;;;;;;6160142;23;20477;-89
2023/08/23 13:32:54;;;;;;;6.93;3.60;;;;;;;;;;6135097;23;20338;-89
2023/08/23 13:35:20;;;;;;;8.25;4.47;;;;;;;;;;6186168;23;20055;-89
2023/08/23 13:37:46;;;;;;;6.97;3.95;;;;;;;;;;6158962;23;20021;-89
2023/08/23 13:40:12;;;;;;;5.28;3.50;;;;;;;;;;6159001;23;20021;-89
2023/08/23 13:42:38;;;;;;;5.15;3.58;;;;;;;;;;6185938;23;20353;-88
2023/08/23 13:45:05;;;;;;;11.25;5.22;;;;;;;;;;6186006;23;20024;-88
2023/08/23 13:47:31;;;;;;;16.38;7.03;;;;;;;;;;6158785;23;20338;-88
2023/08/23 13:49:57;;;;;;;5.47;3.55;;;;;;;;;;6185461;23;20107;-88
2023/08/23 13:52:24;;;;;;;18.70;8.00;;;;;;;;;;6185364;23;20516;-89
2023/08/23 13:54:50;;;;;;;19.67;7.72;;;;;;;;;;6170117;23;20025;-89
2023/08/23 13:57:16;;;;;;;6.88;3.53;;;;;;;;;;6166555;23;20021;-89
2023/08/23 13:59:43;;;;;;;22.05;7.78;;;;;;;;;;6140752;23;20017;-89
2023/08/23 14:02:09;;;;;;;11.60;4.50;;;;;;;;;;6160682;23;20103;-88
2023/08/23 14:04:36;;;;;;;10.32;4.95;;;;;;;;;;6135254;23;20024;-89
2023/08/23 14:07:05;;;;;;;6.40;3.47;;;;;;;;;;6159994;23;20470;-89
2023/08/23 14:09:32;;;;;;;10.07;4.25;;;;;;;;;;6160049;23;20017;-89
2023/08/23 14:11:58;;;;;;;6.85;2.78;;;;;;;;;;6159592;23;20025;-88
2023/08/23 14:14:25;;;;;;;30.50;9.20;;;;;;;;;;6158804;23;20017;-89
2023/08/23 14:16:53;;;;;;;3.58;2.33;;;;;;;;;;6159204;23;20097;-89
2023/08/23 14:19:20;;;;;;;7.75;3.03;;;;;;;;;;6159502;23;20503;-87
2023/08/23 14:21:46;;;;;;;6.72;2.95;;;;;;;;;;6159353;23;20072;-88
2023/08/23 14:24:13;;;;;;;6.10;2.92;;;;;;;;;;6158959;23;20521;-88
2023/08/23 14:26:39;;;;;;;4.15;2.85;;;;;;;;;;6185206;23;20049;-89
2023/08/23 14:29:07;;;;;;;6.70;3.20;;;;;;;;;;6135640;23;20071;-89
2023/08/23 14:31:34;;;;;;;13.38;5.32;;;;;;;;;;6135180;23;20091;-89
2023/08/23 14:34:00;;;;;;;3.72;2.58;;;;;;;;;;6134813;23;20020;-88
2023/08/23 14:36:26;;;;;;;17.00;6.05;;;;;;;;;;6134530;23;20028;-88
2023/08/23 14:38:53;;;;;;;6.90;2.50;;;;;;;;;;6159383;23;20025;-90
2023/08/23 14:41:19;;;;;;;4.32;2.22;;;;;;;;;;6135644;23;20045;-89
2023/08/23 14:43:45;;;;;;;4.95;2.47;;;;;;;;;;6186978;23;20040;-89
2023/08/23 14:46:12;;;;;;;3.90;2.00;;;;;;;;;;6160571;23;20092;-88
2023/08/23 14:48:38;;;;;;;3.13;1.90;;;;;;;;;;6160963;23;20028;-89
2023/08/23 14:51:05;;;;;;;4.07;2.00;;;;;;;;;;6186819;23;20017;-88
2023/08/23 14:53:31;;;;;;;2.40;1.90;;;;;;;;;;6187032;23;20048;-89
2023/08/23 14:55:57;;;;;;;2.83;1.90;;;;;;;;;;6159912;23;20068;-89
2023/08/23 14:58:23;;;;;;;3.38;2.08;;;;;;;;;;6160225;23;20541;-88
2023/08/23 15:00:49;;;;;;;3.67;1.80;;;;;;;;;;6160321;23;20021;-89
2023/08/23 15:03:15;;;;;;;4.85;2.10;;;;;;;;;;6160550;23;20024;-88
2023/08/23 15:05:41;;;;;;;2.58;1.65;;;;;;;;;;6161455;23;20017;-89
2023/08/23 15:08:08;;;;;;;1.70;1.58;;;;;;;;;;6160529;23;20028;-89
2023/08/23 15:10:34;;;;;;;2.92;1.80;;;;;;;;;;6186991;23;20024;-89
2023/08/23 15:13:01;;;;;;;2.92;1.60;;;;;;;;;;6160525;23;20013;-89
2023/08/23 15:15:27;;;;;;;6.32;1.88;;;;;;;;;;6187012;23;20021;-89
2023/08/23 15:17:53;;;;;;;2.80;1.90;;;;;;;;;;6160928;23;20028;-89
2023/08/23 15:20:19;;;;;;;2.35;1.90;;;;;;;;;;6186846;23;20040;-89
2023/08/23 15:22:45;;;;;;;3.25;2.15;;;;;;;;;;6186985;23;20461;-89
2023/08/23 15:25:12;;;;;;;5.50;2.75;;;;;;;;;;6160150;23;20013;-90
2023/08/23 15:27:39;;;;;;;3.65;1.85;;;;;;;;;;6186744;23;20020;-89
2023/08/23 15:30:06;;;;;;;3.72;2.38;;;;;;;;;;6160041;23;20049;-89
2023/08/23 15:32:32;;;;;;;3.63;1.98;;;;;;;;;;6160264;23;20504;-89
2023/08/23 15:34:59;;;;;;;3.67;1.90;;;;;;;;;;6160065;23;20078;-89
2023/08/23 15:37:26;;;;;;;6.40;2.30;;;;;;;;;;6135575;23;20063;-89
2023/08/23 15:39:52;;;;;;;8.10;2.35;;;;;;;;;;6159451;23;20017;-89
2023/08/23 15:42:18;;;;;;;2.60;2.17;;;;;;;;;;6160515;23;20091;-89
2023/08/23 15:44:46;;;;;;;4.45;2.30;;;;;;;;;;6186476;23;20052;-89
2023/08/23 15:47:12;;;;;;;2.97;2.08;;;;;;;;;;6186437;23;20410;-90
2023/08/23 15:49:38;;;;;;;2.78;2.00;;;;;;;;;;6159318;23;20021;-88
2023/08/23 15:52:04;;;;;;;4.40;2.47;;;;;;;;;;6159846;23;20071;-88
2023/08/23 15:54:30;;;;;;;4.90;2.58;;;;;;;;;;6185960;23;20036;-88
2023/08/23 15:56:56;;;;;;;5.40;2.50;;;;;;;;;;6159712;23;20077;-89
2023/08/23 15:59:23;;;;;;;4.75;2.33;;;;;;;;;;6160077;23;20013;-89
2023/08/23 16:01:49;;;;;;;4.75;2.75;;;;;;;;;;6173246;23;20024;-89
2023/08/23 16:04:15;;;;;;;3.50;2.40;;;;;;;;;;6173067;23;20067;-89
2023/08/23 16:06:41;;;;;;;4.78;2.60;;;;;;;;;;6162928;23;20013;-89
2023/08/23 16:09:10;;;;;;;4.82;2.40;;;;;;;;;;6186401;23;20028;-89
2023/08/23 16:11:36;;;;;;;3.42;2.45;;;;;;;;;;6160207;23;20333;-89
2023/08/23 16:14:02;;;;;;;6.13;2.70;;;;;;;;;;6161293;23;20067;-89
2023/08/23 16:16:28;;;;;;;3.17;2.28;;;;;;;;;;6158041;23;20094;-89
2023/08/23 16:18:54;;;;;;;3.70;2.35;;;;;;;;;;6159669;23;20116;-90
2023/08/23 16:21:20;;;;;;;3.88;2.58;;;;;;;;;;6159485;23;20017;-89
2023/08/23 16:23:47;;;;;;;4.43;2.63;;;;;;;;;;6159390;23;20025;-91
2023/08/23 16:26:13;;;;;;;5.13;2.60;;;;;;;;;;6159620;23;20039;-90
2023/08/23 16:28:41;;;;;;;4.85;2.63;;;;;;;;;;6186412;23;20052;-90
2023/08/23 16:31:07;;;;;;;3.65;2.20;;;;;;;;;;6160110;23;20032;-90
2023/08/23 16:33:34;;;;;;;6.97;2.60;;;;;;;;;;6160229;23;20021;-89
2023/08/23 16:36:00;;;;;;;3.90;2.20;;;;;;;;;;6134633;23;20024;-88
2023/08/23 16:38:26;;;;;;;5.22;2.10;;;;;;;;;;6185092;23;20512;-89
2023/08/23 16:40:56;;;;;;;3.15;1.92;;;;;;;;;;6185347;23;20052;-89
2023/08/23 16:43:30;;;;;;;4.95;2.30;;;;;;;;;;6158988;23;20040;-90
2023/08/23 16:45:56;;;;;;;3.03;2.00;;;;;;;;;;6159341;23;20096;-90
2023/08/23 16:48:22;;;;;;;5.72;2.30;;;;;;;;;;6186026;23;20346;-90
2023/08/23 16:50:48;;;;;;;3.33;2.10;;;;;;;;;;6158632;23;20017;-89
2023/08/23 16:53:14;;;;;;;2.58;1.80;;;;;;;;;;6185229;23;20013;-89
2023/08/23 16:55:40;;;;;;;3.28;1.98;;;;;;;;;;6134225;23;20013;-89
2023/08/23 16:58:06;;;;;;;2.97;2.03;;;;;;;;;;6134738;23;20020;-89
2023/08/23 17:00:34;;;;;;;2.95;2.00;;;;;;;;;;6159392;23;20013;-90
2023/08/23 17:03:00;;;;;;;3.33;2.20;;;;;;;;;;6159124;23;20016;-89